Time;durP1;ratioP1;P1;durP2;ratioP2;P2;SDS_P1;SDS_P2;PMS_P1;PMS_P2;Temp;Humidity;BMP_temperature;BMP_pressure;BME280_temperature;BME280_humidity;BME280_pressure;Samples;Min_cycle;Max_cycle;Signal;HPM_P1;HPM_P2
2021/05/01 00:01:10;;;;;;;64.05;35.17;;;;;;;;;;5091814;28;20032;-55
2021/05/01 00:03:36;;;;;;;56.28;33.42;;;;;;;;;;5092707;28;20020;-58
2021/05/01 00:06:02;;;;;;;55.13;30.83;;;;;;;;;;5092836;28;20027;-62
2021/05/01 00:08:28;;;;;;;60.60;32.35;;;;;;;;;;5093053;28;20034;-58
2021/05/01 00:11:00;;;;;;;65.35;35.20;;;;;;;;;;5094133;28;20035;-57
2021/05/01 00:13:26;;;;;;;59.17;33.05;;;;;;;;;;5092998;28;20024;-53
2021/05/01 00:15:52;;;;;;;54.13;31.50;;;;;;;;;;5094163;28;20120;-56
2021/05/01 00:18:18;;;;;;;61.15;32.65;;;;;;;;;;5094207;28;20020;-59
2021/05/01 00:20:44;;;;;;;59.08;33.10;;;;;;;;;;5093961;28;20024;-60
2021/05/01 00:23:10;;;;;;;55.13;32.05;;;;;;;;;;5094049;28;20156;-58
2021/05/01 00:25:36;;;;;;;64.22;33.50;;;;;;;;;;5093922;28;20028;-58
2021/05/01 00:28:03;;;;;;;61.53;31.90;;;;;;;;;;5093003;28;20031;-59
2021/05/01 00:30:29;;;;;;;58.90;32.88;;;;;;;;;;5092927;28;20024;-59
2021/05/01 00:32:56;;;;;;;62.63;34.40;;;;;;;;;;5093580;28;20545;-60
2021/05/01 00:35:22;;;;;;;55.40;31.60;;;;;;;;;;5093355;28;20024;-59
2021/05/01 00:37:48;;;;;;;57.00;33.45;;;;;;;;;;5094487;28;20036;-56
2021/05/01 00:40:15;;;;;;;59.40;34.47;;;;;;;;;;5093710;28;20028;-57
2021/05/01 00:42:41;;;;;;;60.92;34.00;;;;;;;;;;5093638;28;20016;-59
2021/05/01 00:45:07;;;;;;;57.25;33.13;;;;;;;;;;5113454;22;20519;-59
2021/05/01 00:47:33;;;;;;;57.10;34.10;;;;;;;;;;5032094;28;20037;-61
2021/05/01 00:49:59;;;;;;;60.63;33.10;;;;;;;;;;5033031;28;20100;-62
2021/05/01 00:52:26;;;;;;;57.72;33.47;;;;;;;;;;5032301;28;20099;-61
2021/05/01 00:54:52;;;;;;;60.42;33.03;;;;;;;;;;5033530;28;20482;-59
2021/05/01 00:57:18;;;;;;;60.08;34.15;;;;;;;;;;5033506;28;20022;-59
2021/05/01 00:59:44;;;;;;;56.55;31.05;;;;;;;;;;5033361;28;20021;-62
2021/05/01 01:02:12;;;;;;;58.88;31.63;;;;;;;;;;5032036;28;20374;-62
2021/05/01 01:04:38;;;;;;;53.90;32.58;;;;;;;;;;5033593;28;20083;-60
2021/05/01 01:07:04;;;;;;;57.42;31.63;;;;;;;;;;5033317;28;20079;-63
2021/05/01 01:09:30;;;;;;;57.83;31.85;;;;;;;;;;5033298;28;20488;-60
2021/05/01 01:11:57;;;;;;;56.35;33.38;;;;;;;;;;5033451;28;20366;-63
2021/05/01 01:14:22;;;;;;;53.22;32.05;;;;;;;;;;5032008;28;20025;-61
2021/05/01 01:16:49;;;;;;;54.80;32.70;;;;;;;;;;5033599;28;20426;-62
2021/05/01 01:19:15;;;;;;;53.92;32.38;;;;;;;;;;5033189;28;20018;-62
2021/05/01 01:21:42;;;;;;;51.63;30.35;;;;;;;;;;5032028;28;20075;-62
2021/05/01 01:24:08;;;;;;;56.50;31.65;;;;;;;;;;5031802;28;20501;-62
2021/05/01 01:26:38;;;;;;;58.80;32.55;;;;;;;;;;5032810;28;20112;-60
2021/05/01 01:29:05;;;;;;;53.50;30.75;;;;;;;;;;5032639;28;20051;-62
2021/05/01 01:31:31;;;;;;;53.22;32.40;;;;;;;;;;5031663;28;20116;-63
2021/05/01 01:33:57;;;;;;;57.13;31.92;;;;;;;;;;5031592;28;20478;-63
2021/05/01 01:36:23;;;;;;;61.22;33.67;;;;;;;;;;5033273;28;20026;-61
2021/05/01 01:38:49;;;;;;;53.55;30.58;;;;;;;;;;5031838;28;20087;-61
2021/05/01 01:41:15;;;;;;;57.33;33.90;;;;;;;;;;5033037;28;20087;-62
2021/05/01 01:43:41;;;;;;;54.40;33.55;;;;;;;;;;5031718;28;20022;-63
2021/05/01 01:46:07;;;;;;;61.15;33.80;;;;;;;;;;5032699;28;20030;-62
2021/05/01 01:48:33;;;;;;;57.05;32.58;;;;;;;;;;5031401;28;20024;-60
2021/05/01 01:50:59;;;;;;;59.97;32.67;;;;;;;;;;5031416;28;20029;-62
2021/05/01 01:53:25;;;;;;;61.25;33.03;;;;;;;;;;5031585;28;20040;-61
2021/05/01 01:55:52;;;;;;;58.55;34.63;;;;;;;;;;5031196;28;20051;-60
2021/05/01 01:58:19;;;;;;;57.17;32.03;;;;;;;;;;5031103;28;20501;-63
2021/05/01 02:00:45;;;;;;;57.15;31.42;;;;;;;;;;5032635;28;20021;-62
2021/05/01 02:03:14;;;;;;;57.50;35.25;;;;;;;;;;5031480;28;20040;-63
2021/05/01 02:05:40;;;;;;;;;;;;;;;;;;5031561;28;20032;-61
2021/05/01 02:08:06;;;;;;;55.65;32.40;;;;;;;;;;5032430;28;19905;-62
2021/05/01 02:10:32;;;;;;;65.22;32.55;;;;;;;;;;5032338;28;20029;-60
2021/05/01 02:12:58;;;;;;;62.17;34.45;;;;;;;;;;5032538;28;20100;-63
2021/05/01 02:15:24;;;;;;;62.47;33.10;;;;;;;;;;5037015;28;20396;-63
2021/05/01 02:17:51;;;;;;;66.22;35.65;;;;;;;;;;5037339;28;20075;-60
2021/05/01 02:20:19;;;;;;;56.60;37.45;;;;;;;;;;5035437;28;20075;-63
2021/05/01 02:22:45;;;;;;;57.92;33.72;;;;;;;;;;5035366;28;20052;-60
2021/05/01 02:25:11;;;;;;;62.25;33.55;;;;;;;;;;5036537;28;20021;-60
2021/05/01 02:27:37;;;;;;;64.28;35.85;;;;;;;;;;5036689;28;20497;-61
2021/05/01 02:30:05;;;;;;;63.65;34.20;;;;;;;;;;5035214;28;20022;-61
2021/05/01 02:32:31;;;;;;;63.15;36.55;;;;;;;;;;5036431;28;20040;-60
2021/05/01 02:34:57;;;;;;;67.57;37.78;;;;;;;;;;5036356;28;20496;-60
2021/05/01 02:37:23;;;;;;;60.83;35.60;;;;;;;;;;5036143;28;20025;-60
2021/05/01 02:39:49;;;;;;;60.25;36.28;;;;;;;;;;5034768;28;20021;-60
2021/05/01 02:42:15;;;;;;;58.80;36.88;;;;;;;;;;5036081;28;20096;-60
2021/05/01 02:44:41;;;;;;;65.85;35.70;;;;;;;;;;5036316;28;20032;-60
2021/05/01 02:47:07;;;;;;;62.60;35.53;;;;;;;;;;5036007;28;20041;-61
2021/05/01 02:49:33;;;;;;;59.33;37.08;;;;;;;;;;5035511;28;20112;-60
2021/05/01 02:51:59;;;;;;;58.00;34.38;;;;;;;;;;5035627;28;20025;-58
2021/05/01 02:54:25;;;;;;;64.78;36.28;;;;;;;;;;5035912;28;20017;-59
2021/05/01 02:56:51;;;;;;;69.80;37.33;;;;;;;;;;5034806;28;20021;-61
2021/05/01 02:59:18;;;;;;;59.30;35.40;;;;;;;;;;5034543;28;20069;-60
2021/05/01 03:01:46;;;;;;;67.97;37.67;;;;;;;;;;5034660;28;20025;-59
2021/05/01 03:04:12;;;;;;;65.90;36.75;;;;;;;;;;5035672;28;20061;-60
2021/05/01 03:06:38;;;;;;;67.18;39.00;;;;;;;;;;5035868;28;20030;-61
2021/05/01 03:09:04;;;;;;;66.30;36.95;;;;;;;;;;5034404;28;20026;-61
2021/05/01 03:11:33;;;;;;;62.33;35.63;;;;;;;;;;5034938;28;20489;-62
2021/05/01 03:13:58;;;;;;;67.78;36.83;;;;;;;;;;5034744;28;20433;-61
2021/05/01 03:16:24;;;;;;;67.15;39.20;;;;;;;;;;5035757;28;20083;-61
2021/05/01 03:18:50;;;;;;;68.20;38.47;;;;;;;;;;5034714;28;20055;-62
2021/05/01 03:21:16;;;;;;;64.85;38.05;;;;;;;;;;5035854;28;20434;-62
2021/05/01 03:23:43;;;;;;;61.38;37.10;;;;;;;;;;5035911;28;20057;-62
2021/05/01 03:26:08;;;;;;;60.45;34.28;;;;;;;;;;5034469;28;20385;-60
2021/05/01 03:28:35;;;;;;;59.75;35.28;;;;;;;;;;5035517;28;20022;-61
2021/05/01 03:31:01;;;;;;;59.55;37.38;;;;;;;;;;5033878;28;20021;-61
2021/05/01 03:33:28;;;;;;;66.75;37.53;;;;;;;;;;5034169;28;20547;-62
2021/05/01 03:35:56;;;;;;;57.55;34.13;;;;;;;;;;5035310;28;20055;-63
2021/05/01 03:38:22;;;;;;;59.87;33.70;;;;;;;;;;5034111;28;20021;-62
2021/05/01 03:40:48;;;;;;;57.85;32.83;;;;;;;;;;5035249;28;20100;-61
2021/05/01 03:43:14;;;;;;;53.05;31.23;;;;;;;;;;5033987;28;20053;-61
2021/05/01 03:45:40;;;;;;;60.70;34.28;;;;;;;;;;5035473;28;20033;-57
2021/05/01 03:48:08;;;;;;;57.20;33.75;;;;;;;;;;5035470;28;20053;-62
2021/05/01 03:50:34;;;;;;;58.15;33.03;;;;;;;;;;5036006;28;20095;-60
2021/05/01 03:53:00;;;;;;;55.58;32.60;;;;;;;;;;5036056;28;20029;-59
2021/05/01 03:55:26;;;;;;;54.05;31.08;;;;;;;;;;5037750;28;20072;-61
2021/05/01 03:57:52;;;;;;;54.25;32.00;;;;;;;;;;5036384;28;20017;-60
2021/05/01 04:00:19;;;;;;;47.08;29.60;;;;;;;;;;5034328;28;20409;-62
2021/05/01 04:02:45;;;;;;;49.63;29.83;;;;;;;;;;5035198;28;20030;-63
2021/05/01 04:05:13;;;;;;;51.13;30.88;;;;;;;;;;5033488;28;20025;-61
2021/05/01 04:07:39;;;;;;;47.67;27.00;;;;;;;;;;5033851;28;20124;-62
2021/05/01 04:10:05;;;;;;;47.63;29.85;;;;;;;;;;5034194;28;20590;-61
2021/05/01 04:12:31;;;;;;;46.25;28.98;;;;;;;;;;5034595;28;20025;-62
2021/05/01 04:14:57;;;;;;;45.42;26.67;;;;;;;;;;5033050;28;20033;-62
2021/05/01 04:17:23;;;;;;;42.05;25.20;;;;;;;;;;5033110;28;20374;-62
2021/05/01 04:19:49;;;;;;;44.08;26.15;;;;;;;;;;5034360;28;20025;-63
2021/05/01 04:22:19;;;;;;;42.88;26.95;;;;;;;;;;5034309;28;20030;-62
2021/05/01 04:24:45;;;;;;;45.13;24.63;;;;;;;;;;5034335;28;20087;-61
2021/05/01 04:27:11;;;;;;;39.72;23.85;;;;;;;;;;5034408;28;20038;-61
2021/05/01 04:29:37;;;;;;;45.15;25.10;;;;;;;;;;5033951;28;20033;-62
2021/05/01 04:32:03;;;;;;;47.83;25.73;;;;;;;;;;5034046;28;20033;-62
2021/05/01 04:34:29;;;;;;;41.90;24.52;;;;;;;;;;5032878;28;20366;-62
2021/05/01 04:36:55;;;;;;;42.55;24.98;;;;;;;;;;5032000;28;20020;-59
2021/05/01 04:39:24;;;;;;;45.30;25.55;;;;;;;;;;5032896;28;20025;-62
2021/05/01 04:41:50;;;;;;;42.83;24.33;;;;;;;;;;5034387;28;20034;-62
2021/05/01 04:44:16;;;;;;;42.15;24.52;;;;;;;;;;5033123;28;20029;-61
2021/05/01 04:46:42;;;;;;;42.63;24.20;;;;;;;;;;5033139;28;20120;-60
2021/05/01 04:49:08;;;;;;;38.97;23.35;;;;;;;;;;5033890;28;20480;-62
2021/05/01 04:51:35;;;;;;;42.35;24.35;;;;;;;;;;5033894;28;20037;-62
2021/05/01 04:54:02;;;;;;;42.97;23.27;;;;;;;;;;5033318;28;20021;-62
2021/05/01 04:56:28;;;;;;;39.58;24.52;;;;;;;;;;5034498;28;20021;-61
2021/05/01 04:58:54;;;;;;;39.67;23.05;;;;;;;;;;5032327;28;20486;-61
2021/05/01 05:01:20;;;;;;;39.40;23.48;;;;;;;;;;5033441;28;20022;-61
2021/05/01 05:03:46;;;;;;;37.17;22.80;;;;;;;;;;5032325;28;20109;-61
2021/05/01 05:06:12;;;;;;;39.90;24.40;;;;;;;;;;5032077;28;20021;-62
2021/05/01 05:08:38;;;;;;;41.13;24.23;;;;;;;;;;5033279;28;20095;-59
2021/05/01 05:11:04;;;;;;;40.70;24.15;;;;;;;;;;5031939;28;20029;-63
2021/05/01 05:13:30;;;;;;;37.72;23.13;;;;;;;;;;5032157;28;20029;-61
2021/05/01 05:15:56;;;;;;;39.80;21.40;;;;;;;;;;5031694;28;20557;-62
2021/05/01 05:18:23;;;;;;;37.03;22.85;;;;;;;;;;5032096;28;20022;-62
2021/05/01 05:20:49;;;;;;;36.05;21.73;;;;;;;;;;5032134;28;20017;-61
2021/05/01 05:23:15;;;;;;;37.90;22.83;;;;;;;;;;5033114;28;20048;-62
2021/05/01 05:25:41;;;;;;;41.22;23.48;;;;;;;;;;5031789;28;20033;-61
2021/05/01 05:28:07;;;;;;;40.33;23.48;;;;;;;;;;5033008;28;20366;-62
2021/05/01 05:30:33;;;;;;;40.42;22.90;;;;;;;;;;5031401;28;20116;-62
2021/05/01 05:33:00;;;;;;;43.00;22.88;;;;;;;;;;5031897;28;20504;-62
2021/05/01 05:35:27;;;;;;;41.30;24.13;;;;;;;;;;5031773;28;20171;-63
2021/05/01 05:37:53;;;;;;;37.92;21.95;;;;;;;;;;5032803;28;20060;-63
2021/05/01 05:40:19;;;;;;;38.95;21.75;;;;;;;;;;5031331;28;20025;-63
2021/05/01 05:42:49;;;;;;;37.78;22.75;;;;;;;;;;5032591;28;20025;-62
2021/05/01 05:45:22;;;;;;;38.88;21.95;;;;;;;;;;5032529;28;20032;-62
2021/05/01 05:47:48;;;;;;;36.55;21.95;;;;;;;;;;5033265;28;20084;-62
2021/05/01 05:50:14;;;;;;;38.47;21.92;;;;;;;;;;5033041;28;20401;-62
2021/05/01 05:52:40;;;;;;;38.08;23.45;;;;;;;;;;5031449;28;20029;-61
2021/05/01 05:55:07;;;;;;;40.55;23.67;;;;;;;;;;5031281;28;20018;-62
2021/05/01 05:57:33;;;;;;;41.83;24.30;;;;;;;;;;5031024;28;20022;-61
2021/05/01 05:59:59;;;;;;;38.65;23.98;;;;;;;;;;5031322;28;20026;-61
2021/05/01 06:02:26;;;;;;;38.10;23.10;;;;;;;;;;5032635;28;20100;-62
2021/05/01 06:05:01;;;;;;;40.45;25.23;;;;;;;;;;5032871;28;20029;-62
2021/05/01 06:07:30;;;;;;;37.40;22.27;;;;;;;;;;5031529;28;20036;-62
2021/05/01 06:09:56;;;;;;;54.08;22.50;;;;;;;;;;5032248;28;20030;-57
2021/05/01 06:12:23;;;;;;;39.05;21.48;;;;;;;;;;5031475;28;20493;-61
2021/05/01 06:14:49;;;;;;;42.90;25.40;;;;;;;;;;5032457;28;20151;-62
2021/05/01 06:17:17;;;;;;;40.20;23.40;;;;;;;;;;5032448;28;20025;-62
2021/05/01 06:19:46;;;;;;;36.08;22.83;;;;;;;;;;5032739;28;20030;-62
2021/05/01 06:22:12;;;;;;;39.28;23.23;;;;;;;;;;5032623;28;20025;-62
2021/05/01 06:24:41;;;;;;;39.30;22.08;;;;;;;;;;5033128;28;20104;-61
2021/05/01 06:27:07;;;;;;;37.47;22.20;;;;;;;;;;5032179;28;20030;-62
2021/05/01 06:29:37;;;;;;;35.00;20.92;;;;;;;;;;5034127;28;20112;-62
2021/05/01 06:32:03;;;;;;;37.28;20.77;;;;;;;;;;5025667;28;20039;-56
2021/05/01 06:34:29;;;;;;;38.22;22.02;;;;;;;;;;5030688;28;20041;-60
2021/05/01 06:36:55;;;;;;;41.78;22.85;;;;;;;;;;5043788;28;20022;-62
2021/05/01 06:39:24;;;;;;;36.15;21.02;;;;;;;;;;5051857;28;20025;-62
2021/05/01 06:41:56;;;;;;;33.28;19.40;;;;;;;;;;5033790;28;20034;-61
2021/05/01 06:44:37;;;;;;;36.67;20.35;;;;;;;;;;5032263;28;20036;-60
2021/05/01 06:47:05;;;;;;;33.60;20.40;;;;;;;;;;5044151;23;20045;-57
2021/05/01 06:49:35;;;;;;;37.33;22.40;;;;;;;;;;5026130;28;20026;-60
2021/05/01 06:52:03;;;;;;;36.45;20.58;;;;;;;;;;5030266;28;20478;-57
2021/05/01 06:54:30;;;;;;;35.58;20.95;;;;;;;;;;5031622;28;20056;-57
2021/05/01 06:56:57;;;;;;;35.70;21.17;;;;;;;;;;5030284;28;20025;-57
2021/05/01 06:59:23;;;;;;;39.20;21.98;;;;;;;;;;5030492;28;20486;-56
2021/05/01 07:01:50;;;;;;;35.15;19.35;;;;;;;;;;5035239;28;20026;-56
2021/05/01 07:04:16;;;;;;;37.38;22.95;;;;;;;;;;5033997;28;20026;-60
2021/05/01 07:06:43;;;;;;;38.72;22.83;;;;;;;;;;5035007;28;20035;-57
2021/05/01 07:09:09;;;;;;;41.70;23.70;;;;;;;;;;5034862;28;20033;-57
2021/05/01 07:11:35;;;;;;;33.92;21.02;;;;;;;;;;5035086;28;20362;-58
2021/05/01 07:14:03;;;;;;;35.70;22.40;;;;;;;;;;5035083;28;20488;-56
2021/05/01 07:16:29;;;;;;;38.78;21.98;;;;;;;;;;5034814;28;20071;-57
2021/05/01 07:19:00;;;;;;;39.13;20.38;;;;;;;;;;5033380;28;20113;-57
2021/05/01 07:21:26;;;;;;;39.42;21.00;;;;;;;;;;5034805;28;20531;-56
2021/05/01 07:23:52;;;;;;;32.85;19.58;;;;;;;;;;5034754;28;20029;-58
2021/05/01 07:26:22;;;;;;;39.50;21.67;;;;;;;;;;5033345;28;20030;-60
2021/05/01 07:28:50;;;;;;;32.17;19.33;;;;;;;;;;5034499;28;20021;-54
2021/05/01 07:31:20;;;;;;;36.58;19.88;;;;;;;;;;5033973;28;20022;-56
2021/05/01 07:33:47;;;;;;;35.85;21.65;;;;;;;;;;5014815;28;20034;-60
2021/05/01 07:36:19;;;;;;;36.13;21.40;;;;;;;;;;5015196;28;20100;-54
2021/05/01 07:38:46;;;;;;;36.67;21.13;;;;;;;;;;5014551;28;20492;-61
2021/05/01 07:41:16;;;;;;;30.48;18.48;;;;;;;;;;5014603;28;20029;-52
2021/05/01 07:43:46;;;;;;;36.42;19.05;;;;;;;;;;5014723;28;20080;-51
2021/05/01 07:46:13;;;;;;;34.83;20.77;;;;;;;;;;5014824;28;20109;-56
2021/05/01 07:48:40;;;;;;;35.80;20.52;;;;;;;;;;5014487;28;20036;-51
2021/05/01 07:51:06;;;;;;;39.10;19.75;;;;;;;;;;5014426;28;20054;-52
2021/05/01 07:53:32;;;;;;;37.75;20.02;;;;;;;;;;5013075;28;20022;-51
2021/05/01 07:56:00;;;;;;;33.47;18.35;;;;;;;;;;5014410;28;20525;-51
2021/05/01 07:58:26;;;;;;;34.60;19.25;;;;;;;;;;5014309;28;20540;-53
2021/05/01 08:00:52;;;;;;;34.97;20.00;;;;;;;;;;5013057;28;20025;-48
2021/05/01 08:03:18;;;;;;;30.52;18.20;;;;;;;;;;5013960;28;20393;-48
2021/05/01 08:05:44;;;;;;;40.38;19.60;;;;;;;;;;5017302;28;20017;-49
2021/05/01 08:08:10;;;;;;;35.95;19.27;;;;;;;;;;5033596;28;20040;-51
2021/05/01 08:10:36;;;;;;;31.65;17.50;;;;;;;;;;5033090;28;20026;-48
2021/05/01 08:13:02;;;;;;;31.65;18.67;;;;;;;;;;5033044;28;20064;-50
2021/05/01 08:15:30;;;;;;;35.03;18.35;;;;;;;;;;5033834;28;20052;-50
2021/05/01 08:17:56;;;;;;;32.83;19.77;;;;;;;;;;5033977;28;20022;-54
2021/05/01 08:20:23;;;;;;;36.58;20.67;;;;;;;;;;5033385;28;20112;-54
2021/05/01 08:22:49;;;;;;;32.97;19.50;;;;;;;;;;5033388;28;20025;-53
2021/05/01 08:25:15;;;;;;;34.83;19.77;;;;;;;;;;5033311;28;20029;-55
2021/05/01 08:27:41;;;;;;;36.83;20.73;;;;;;;;;;5033551;28;20029;-53
2021/05/01 08:30:08;;;;;;;34.53;20.65;;;;;;;;;;5022498;28;20114;-55
2021/05/01 08:32:36;;;;;;;36.85;20.67;;;;;;;;;;5027003;28;20053;-50
2021/05/01 08:35:04;;;;;;;33.13;21.23;;;;;;;;;;5012461;28;20022;-51
2021/05/01 08:37:30;;;;;;;38.23;21.33;;;;;;;;;;5014002;28;20036;-49
2021/05/01 08:39:56;;;;;;;37.17;23.45;;;;;;;;;;5021283;28;20425;-48
2021/05/01 08:42:22;;;;;;;32.80;18.92;;;;;;;;;;5033257;28;20057;-50
2021/05/01 08:44:48;;;;;;;32.08;17.95;;;;;;;;;;5033362;28;20079;-54
2021/05/01 08:47:14;;;;;;;31.75;17.98;;;;;;;;;;5032949;28;20041;-50
2021/05/01 08:49:40;;;;;;;37.17;21.67;;;;;;;;;;5032861;28;20021;-50
2021/05/01 08:52:06;;;;;;;37.35;20.80;;;;;;;;;;5032968;28;20029;-51
2021/05/01 08:54:33;;;;;;;37.45;21.15;;;;;;;;;;5033005;28;20040;-48
2021/05/01 08:57:00;;;;;;;33.50;20.60;;;;;;;;;;5033186;28;20029;-51
2021/05/01 08:59:26;;;;;;;34.67;20.65;;;;;;;;;;5032798;28;20021;-53
2021/05/01 09:01:52;;;;;;;34.90;20.40;;;;;;;;;;5033247;28;20381;-52
2021/05/01 09:04:19;;;;;;;32.88;20.25;;;9.40;99.90;;;;;;5032662;28;20040;-55
2021/05/01 09:06:46;;;;;;;34.63;21.27;;;10.90;99.90;;;;;;5031398;28;20072;-51
2021/05/01 09:09:12;;;;;;;33.25;20.35;;;11.00;99.90;;;;;;5031409;28;20036;-53
2021/05/01 09:11:42;;;;;;;35.55;21.45;;;11.10;99.90;;;;;;5032929;28;20029;-48
2021/05/01 09:14:37;;;;;;;32.95;19.83;;;11.10;99.90;;;;;;5032739;28;20028;-50
2021/05/01 09:17:07;;;;;;;35.85;22.27;;;11.10;99.90;;;;;;5032165;28;20609;-52
2021/05/01 09:19:34;;;;;;;33.60;20.27;;;;;;;;;;5032383;28;20584;-53
2021/05/01 09:22:04;;;;;;;34.38;21.98;;;11.00;99.90;;;;;;5032203;28;20546;-54
2021/05/01 09:24:30;;;;;;;34.88;21.67;;;11.50;99.90;;;;;;5031437;28;20120;-58
2021/05/01 09:26:56;;;;;;;35.30;20.98;;;;;;;;;;5032707;28;20370;-58
2021/05/01 09:29:31;;;;;;;34.47;22.00;;;;;;;;;;5032071;28;20028;-57
2021/05/01 09:31:58;;;;;;;34.90;21.58;;;;;;;;;;5027423;28;20037;-57
2021/05/01 09:34:37;;;;;;;28.80;19.85;;;;;;;;;;5012129;28;20018;-56
2021/05/01 09:37:05;;;;;;;29.98;20.10;;;;;;;;;;5010135;28;20126;-55
2021/05/01 09:39:31;;;;;;;33.55;21.40;;;;;;;;;;5010770;28;20030;-54
2021/05/01 09:41:57;;;;;;;33.00;21.58;;;;;;;;;;5011780;28;20504;-57
2021/05/01 09:44:23;;;;;;;29.23;18.83;;;;;;;;;;5012503;28;20037;-55
2021/05/01 09:46:53;;;;;;;26.38;16.17;;;;;;;;;;5012768;28;20512;-57
2021/05/01 09:49:21;;;;;;;25.52;15.07;;;;;;;;;;5013600;28;20058;-57
2021/05/01 09:51:47;;;;;;;22.98;13.25;;;;;;;;;;5011922;28;20061;-57
2021/05/01 09:54:17;;;;;;;23.70;13.43;;;;;;;;;;5013683;28;20112;-58
2021/05/01 09:56:44;;;;;;;25.10;14.27;;;;;;;;;;5012369;28;20065;-60
2021/05/01 09:59:10;;;;;;;25.48;13.90;;;12.00;99.90;;;;;;5012825;28;20033;-54
2021/05/01 10:01:36;;;;;;;23.42;14.90;;;11.10;99.90;;;;;;5012695;28;20028;-55
2021/05/01 10:04:16;;;;;;;24.42;14.75;;;11.10;99.90;;;;;;5012316;28;20419;-57
2021/05/01 10:06:55;;;;;;;24.25;13.70;;;11.00;99.90;;;;;;5012234;28;20060;-56
2021/05/01 10:09:26;;;;;;;21.05;11.73;;;11.10;99.90;;;;;;5010760;28;20038;-57
2021/05/01 10:12:05;;;;;;;22.02;11.75;;;11.20;99.90;;;;;;5010836;28;20037;-52
2021/05/01 10:14:51;;;;;;;20.98;11.60;;;11.20;99.70;;;;;;5011468;28;20198;-58
2021/05/01 10:17:23;;;;;;;18.75;10.70;;;11.70;99.70;;;;;;5011637;28;20398;-54
2021/05/01 10:20:01;;;;;;;20.73;11.23;;;11.90;97.10;;;;;;5011838;28;20057;-57
2021/05/01 10:22:29;;;;;;;19.10;12.60;;;;;;;;;;5010854;28;20445;-57
2021/05/01 10:24:57;;;;;;;21.70;13.35;;;12.40;95.20;;;;;;5012411;28;20101;-56
2021/05/01 10:27:24;;;;;;;21.40;13.07;;;12.50;93.00;;;;;;5010774;28;20114;-55
2021/05/01 10:30:10;;;;;;;21.60;13.50;;;12.50;95.20;;;;;;5011705;28;20026;-55
2021/05/01 10:32:49;;;;;;;19.80;12.40;;;;;;;;;;5011884;28;20065;-55
2021/05/01 10:35:15;;;;;;;20.58;12.63;;;;;;;;;;5014263;28;20093;-60
2021/05/01 10:37:49;;;;;;;21.30;12.80;;;;;;;;;;5014567;28;20025;-55
2021/05/01 10:40:16;;;;;;;20.60;12.43;;;;;;;;;;5015646;28;20022;-57
2021/05/01 10:42:42;;;;;;;24.23;14.40;;;;;;;;;;5015632;28;20344;-55
2021/05/01 10:45:08;;;;;;;20.52;12.98;;;;;;;;;;5014570;28;20498;-55
2021/05/01 10:47:34;;;;;;;22.85;14.07;;;;;;;;;;5015234;28;20033;-57
2021/05/01 10:50:16;;;;;;;20.10;14.15;;;;;;;;;;5014227;28;20030;-55
2021/05/01 10:52:42;;;;;;;24.25;14.18;;;;;;;;;;5013999;28;20026;-55
2021/05/01 10:55:09;;;;;;;22.90;14.25;;;;;;;;;;5015685;28;20054;-55
2021/05/01 10:57:39;;;;;;;20.65;13.13;;;;;;;;;;5015247;28;20113;-58
2021/05/01 11:00:05;;;;;;;20.27;13.00;;;;;;;;;;5014069;28;20104;-59
2021/05/01 11:02:42;;;;;;;20.02;13.48;;;;;;;;;;5015224;28;20034;-52
2021/05/01 11:05:09;;;;;;;21.65;13.30;;;;;;;;;;5015345;28;20033;-60
2021/05/01 11:07:45;;;;;;;21.20;12.68;;;;;;;;;;5014007;28;20116;-58
2021/05/01 11:10:15;;;;;;;19.98;13.02;;;;;;;;;;5015206;28;20034;-56
2021/05/01 11:12:47;;;;;;;20.45;13.05;;;;;;;;;;5015475;28;20028;-57
2021/05/01 11:15:13;;;;;;;28.92;18.95;;;;;;;;;;5014159;28;20032;-53
2021/05/01 11:17:55;;;;;;;25.25;13.15;;;;;;;;;;5014995;28;20022;-57
2021/05/01 11:20:22;;;;;;;21.85;13.63;;;12.20;96.90;;;;;;5014707;28;20025;-51
2021/05/01 11:22:51;;;;;;;19.75;13.45;;;;;;;;;;5014867;28;20022;-58
2021/05/01 11:25:16;;;;;;;;;;;;;;;;;;5015308;28;20367;-54
2021/05/01 11:27:45;;;;;;;20.58;12.95;;;14.10;92.40;;;;;;5005901;28;19921;-54
2021/05/01 11:30:13;;;;;;;18.95;13.32;;;;;;;;;;5003519;28;20105;-56
2021/05/01 11:32:39;;;;;;;20.70;14.38;;;;;;;;;;5003810;28;20037;-55
2021/05/01 11:35:09;;;;;;;18.83;13.23;;;;;;;;;;5004054;28;20025;-55
2021/05/01 11:37:48;;;;;;;20.70;12.95;;;;;;;;;;5003362;28;20022;-57
2021/05/01 11:40:14;;;;;;;22.35;14.13;;;;;;;;;;5004741;28;20391;-55
2021/05/01 11:42:41;;;;;;;20.15;13.57;;;;;;;;;;5004806;28;20376;-56
2021/05/01 11:45:12;;;;;;;20.83;13.80;;;;;;;;;;5001838;28;20498;-57
2021/05/01 11:47:40;;;;;;;18.85;13.32;;;;;;;;;;5025110;28;20037;-54
2021/05/01 11:50:06;;;;;;;18.90;13.38;;;;;;;;;;5023145;28;20064;-58
2021/05/01 11:52:55;;;;;;;19.92;14.00;;;18.70;73.90;;;;;;5019932;28;20406;-57
2021/05/01 11:55:36;;;;;;;22.45;13.13;;;;;;;;;;5024400;28;20371;-56
2021/05/01 11:58:03;;;;;;;19.77;12.75;;;;;;;;;;5022740;28;20088;-52
2021/05/01 12:00:33;;;;;;;20.00;13.15;;;;;;;;;;5023624;28;20022;-55
2021/05/01 12:03:01;;;;;;;20.50;12.52;;;;;;;;;;5024158;28;20454;-51
2021/05/01 12:05:33;;;;;;;20.13;11.73;;;;;;;;;;5027576;28;20072;-55
2021/05/01 12:08:14;;;;;;;19.38;12.25;;;;;;;;;;5017941;28;20402;-59
2021/05/01 12:10:45;;;;;;;20.63;12.90;;;;;;;;;;5024451;28;20030;-51
2021/05/01 12:13:22;;;;;;;21.75;13.30;;;;;;;;;;5023283;28;20022;-53
2021/05/01 12:15:52;;;;;;;20.52;13.45;;;;;;;;;;5022389;28;20109;-54
2021/05/01 12:18:20;;;;;;;19.55;12.75;;;;;;;;;;5008523;28;20106;-58
2021/05/01 12:20:53;;;;;;;18.33;12.10;;;18.60;64.50;;;;;;5001658;28;20029;-59
2021/05/01 12:23:42;;;;;;;18.55;12.07;;;14.50;72.10;;;;;;5002308;28;20033;-58
2021/05/01 12:26:08;;;;;;;17.48;12.00;;;14.70;69.30;;;;;;5003158;28;20396;-58
2021/05/01 12:28:42;;;;;;;17.50;11.30;;;14.40;68.70;;;;;;5003732;28;20025;-56
2021/05/01 12:31:08;;;;;;;20.33;11.88;;;14.20;68.70;;;;;;5002196;28;20033;-56
2021/05/01 12:33:38;;;;;;;21.33;12.43;;;;;;;;;;5004948;28;20499;-54
2021/05/01 12:36:05;;;;;;;20.27;13.13;;;;;;;;;;5013707;28;20109;-52
2021/05/01 12:38:33;;;;;;;19.08;14.10;;;;;;;;;;5014066;28;20022;-55
2021/05/01 12:41:08;;;;;;;19.30;13.70;;;;;;;;;;5013012;28;20135;-54
2021/05/01 12:43:33;;;;;;;19.80;13.63;;;14.30;68.80;;;;;;5013585;28;20037;-55
2021/05/01 12:46:01;;;;;;;17.48;13.45;;;18.00;64.30;;;;;;5014440;28;20030;-53
2021/05/01 12:48:52;;;;;;;20.05;13.25;;;18.60;62.50;;;;;;5002507;28;20029;-52
2021/05/01 12:51:26;;;;;;;19.13;14.15;;;18.60;62.60;;;;;;4996594;28;20447;-53
2021/05/01 12:53:53;;;;;;;19.90;14.02;;;;;;;;;;5003935;28;20044;-52
2021/05/01 12:56:29;;;;;;;19.52;15.30;;;;;;;;;;5010700;28;20029;-60
2021/05/01 12:59:14;;;;;;;18.45;13.65;;;;;;;;;;4993070;28;20076;-59
2021/05/01 13:01:40;;;;;;;17.52;12.55;;;;;;;;;;4992630;28;20413;-53
2021/05/01 13:04:14;;;;;;;18.38;12.90;;;;;;;;;;5000299;28;20100;-51
2021/05/01 13:06:40;;;;;;;18.60;13.23;;;;;;;;;;4678546;28;9999917;-57
2021/05/01 13:09:07;;;;;;;18.65;12.63;;;;;;;;;;5029568;28;20113;-56
2021/05/01 13:11:33;;;;;;;17.20;12.90;;;;;;;;;;5029805;28;20025;-56
2021/05/01 13:14:16;;;;;;;20.83;12.38;;;;;;;;;;5028914;28;20026;-54
2021/05/01 13:17:02;;;;;;;19.42;12.85;;;;;;;;;;5023729;28;20355;-56
2021/05/01 13:20:07;;;;;;;18.33;12.60;;;19.20;61.60;;;;;;5026363;28;20067;-56
2021/05/01 13:22:33;;;;;;;17.60;11.60;;;;;;;;;;5026307;28;20060;-56
2021/05/01 13:25:03;;;;;;;18.58;12.02;;;;;;;;;;5027922;28;20125;-53
2021/05/01 13:27:33;;;;;;;19.55;12.35;;;;;;;;;;5029568;28;20071;-58
2021/05/01 13:30:09;;;;;;;17.58;12.20;;;;;;;;;;5029015;28;20030;-56
2021/05/01 13:32:36;;;;;;;17.17;11.48;;;;;;;;;;5022813;28;20081;-59
2021/05/01 13:35:04;;;;;;;18.08;12.88;;;16.50;55.70;;;;;;5009561;28;20592;-55
2021/05/01 13:37:31;;;;;;;18.40;12.75;;;16.00;59.70;;;;;;5021155;28;20053;-55
2021/05/01 13:39:56;;;;;;;17.67;11.95;;;16.10;57.10;;;;;;5028805;28;20080;-57
2021/05/01 13:42:23;;;;;;;18.63;12.70;;;18.00;54.40;;;;;;5028672;28;20421;-58
2021/05/01 13:44:49;;;;;;;17.17;11.88;;;;;;;;;;5028532;28;20397;-55
2021/05/01 13:47:37;;;;;;;17.77;11.90;;;17.60;53.60;;;;;;5028989;28;20030;-55
2021/05/01 13:50:11;;;;;;;19.10;11.95;;;15.40;55.90;;;;;;5024077;28;20104;-54
2021/05/01 13:52:44;;;;;;;16.95;11.57;;;15.10;57.40;;;;;;5029187;28;20042;-59
2021/05/01 13:55:28;;;;;;;17.95;11.75;;;15.20;57.50;;;;;;5029172;28;20108;-50
2021/05/01 13:58:04;;;;;;;18.08;12.00;;;15.40;58.10;;;;;;5029006;28;20035;-56
2021/05/01 14:00:31;;;;;;;18.75;12.57;;;15.40;58.30;;;;;;5027806;28;20021;-54
2021/05/01 14:03:00;;;;;;;17.83;11.70;;;15.50;58.10;;;;;;5029077;28;20036;-56
2021/05/01 14:05:29;;;;;;;24.85;13.43;;;15.20;59.50;;;;;;5021695;28;20678;-53
2021/05/01 14:07:56;;;;;;;19.20;11.30;;;;;;;;;;5008141;28;20129;-55